createdAt,value
2023-02-15T00:01:13.516Z,101889.50
2023-02-15T00:06:16.144Z,101895.19
2023-02-15T00:11:38.232Z,101888.91
2023-02-15T00:16:41.924Z,101875.44
2023-02-15T00:21:48.057Z,101882.56
2023-02-15T00:26:50.718Z,101879.59
2023-02-15T00:31:53.603Z,101889.63
2023-02-15T00:36:55.811Z,101884.28
2023-02-15T00:41:58.107Z,101852.94
2023-02-15T00:47:00.346Z,101862.25
2023-02-15T00:52:02.536Z,101897.50
2023-02-15T00:57:04.783Z,101881.38
2023-02-15T01:02:06.958Z,101885.38
2023-02-15T01:07:09.185Z,101866.00
2023-02-15T01:12:11.378Z,101876.41
2023-02-15T01:17:13.535Z,101871.06
2023-02-15T01:22:15.842Z,101869.69
2023-02-15T01:27:18.146Z,101875.03
2023-02-15T01:32:20.387Z,101849.50
2023-02-15T01:37:22.559Z,101858.84
2023-02-15T01:42:26.088Z,101863.94
2023-02-15T01:47:45.518Z,101887.94
2023-02-15T01:53:03.291Z,101896.53
2023-02-15T01:58:05.752Z,101865.66
2023-02-15T02:03:08.378Z,101870.97
2023-02-15T02:08:11.026Z,101856.47
2023-02-15T02:13:13.328Z,101857.66
2023-02-15T02:18:33.310Z,101889.84
2023-02-15T02:24:01.950Z,101900.97
2023-02-15T02:29:28.971Z,101900.44
2023-02-15T02:34:58.172Z,101851.75
2023-02-15T02:40:12.586Z,101890.56
2023-02-15T02:45:52.532Z,101931.41
2023-02-15T02:50:54.703Z,101921.94
2023-02-15T02:56:22.791Z,101930.22
2023-02-15T03:01:33.827Z,101932.97
2023-02-15T03:06:52.327Z,101950.91
2023-02-15T03:11:54.635Z,101942.47
2023-02-15T03:16:57.707Z,101895.13
2023-02-15T03:22:10.561Z,101899.34
2023-02-15T03:27:19.528Z,101838.31
2023-02-15T03:32:23.131Z,101861.47
2023-02-15T03:37:38.835Z,101925.16
2023-02-15T03:42:42.004Z,101910.03
2023-02-15T03:47:48.628Z,101949.91
2023-02-15T03:52:51.046Z,101963.50
2023-02-15T03:58:12.466Z,101985.34
2023-02-15T04:03:17.446Z,102006.41
2023-02-15T04:08:19.650Z,101986.22
2023-02-15T04:13:32.814Z,102005.38
2023-02-15T04:18:57.545Z,101980.28
2023-02-15T04:24:18.480Z,101973.16
2023-02-15T04:29:24.867Z,102027.28
2023-02-15T04:34:27.545Z,102031.09
2023-02-15T04:39:33.611Z,102015.97
2023-02-15T04:44:35.873Z,102000.78
2023-02-15T04:49:38.006Z,102023.69
2023-02-15T04:54:40.444Z,102015.88
2023-02-15T04:59:42.746Z,101991.09
2023-02-15T05:04:45.091Z,102073.28
2023-02-15T05:09:47.518Z,102052.97
2023-02-15T05:14:49.805Z,102021.28
2023-02-15T05:19:52.164Z,102025.94
2023-02-15T05:25:12.864Z,102073.66
2023-02-15T05:30:15.555Z,102038.63
2023-02-15T05:35:18.272Z,102068.22
2023-02-15T05:40:20.397Z,102089.03
2023-02-15T05:45:22.585Z,102058.03
2023-02-15T05:50:24.742Z,102091.25
2023-02-15T05:55:27.036Z,102075.09
2023-02-15T06:00:29.184Z,102046.19
2023-02-15T06:05:31.863Z,102058.41
2023-02-15T06:10:34.136Z,102073.59
2023-02-15T06:15:36.403Z,102077.53
2023-02-15T06:20:38.700Z,102082.00
2023-02-15T06:25:40.958Z,102029.47
2023-02-15T06:30:43.216Z,102037.13
2023-02-15T06:35:47.473Z,102079.50
2023-02-15T06:40:49.767Z,102091.34
2023-02-15T06:45:52.149Z,102108.44
2023-02-15T06:50:54.342Z,102123.84
2023-02-15T06:56:04.510Z,102098.69
2023-02-15T07:01:10.367Z,102067.63
2023-02-15T07:06:13.259Z,102035.78
2023-02-15T07:11:33.907Z,102152.91
2023-02-15T07:16:36.047Z,102138.00
2023-02-15T07:21:38.569Z,102152.59
2023-02-15T07:26:40.833Z,102109.50
2023-02-15T07:31:47.687Z,102006.59
2023-02-15T07:36:52.420Z,102058.16
2023-02-15T07:41:54.837Z,102141.53
2023-02-15T07:46:57.820Z,102091.97
2023-02-15T07:52:02.147Z,102140.28
2023-02-15T07:57:04.476Z,102117.34
2023-02-15T08:02:11.509Z,102138.19
2023-02-15T08:07:13.716Z,102132.00
2023-02-15T08:12:15.853Z,102136.50
2023-02-15T08:17:18.103Z,102133.75
2023-02-15T08:22:20.273Z,102125.94
2023-02-15T08:27:27.997Z,102113.09
2023-02-15T08:32:30.080Z,102115.50
2023-02-15T08:37:32.384Z,102146.16
2023-02-15T08:42:35.696Z,102128.94
2023-02-15T08:47:37.882Z,102118.53
2023-02-15T08:52:40.049Z,102136.94
2023-02-15T08:57:46.206Z,102138.53
2023-02-15T09:02:48.381Z,102145.41
2023-02-15T09:07:50.662Z,102162.66
2023-02-15T09:12:53.920Z,102184.28
2023-02-15T09:18:02.732Z,102171.44
2023-02-15T09:23:04.944Z,102170.88
2023-02-15T09:28:07.178Z,102143.47
2023-02-15T09:33:09.401Z,102148.63
2023-02-15T09:38:13.468Z,102144.97
2023-02-15T09:43:34.563Z,102140.75
2023-02-15T09:48:41.813Z,102154.88
2023-02-15T09:54:12.675Z,102149.63
2023-02-15T09:59:42.614Z,102153.75
2023-02-15T10:05:22.132Z,102133.09
2023-02-15T10:10:49.008Z,102142.41
2023-02-15T10:16:17.981Z,102140.59
2023-02-15T10:21:41.645Z,102133.50
2023-02-15T10:26:47.836Z,102120.69
2023-02-15T10:31:56.577Z,102110.09
2023-02-15T10:37:10.678Z,102110.69
2023-02-15T10:42:36.244Z,102110.31
2023-02-15T10:47:53.679Z,102109.22
2023-02-15T10:53:30.797Z,102077.06
2023-02-15T10:58:35.521Z,102085.00
2023-02-15T11:03:43.155Z,102082.69
2023-02-15T11:08:52.943Z,102072.88
2023-02-15T11:14:01.355Z,102043.13
2023-02-15T11:19:49.050Z,102028.53
2023-02-15T11:24:51.548Z,102062.56
2023-02-15T11:30:02.324Z,102047.00
2023-02-15T11:35:13.818Z,102033.03
2023-02-15T11:40:29.738Z,102029.38
2023-02-15T11:45:35.710Z,102027.63
2023-02-15T11:50:38.533Z,101990.00
2023-02-15T11:55:41.285Z,101973.84
2023-02-15T12:00:47.210Z,102000.78
2023-02-15T12:05:54.974Z,101996.22
2023-02-15T12:11:09.486Z,102005.16
2023-02-15T12:16:14.265Z,102004.22
2023-02-15T12:21:30.477Z,102012.22
2023-02-15T12:26:36.503Z,101997.06
2023-02-15T12:31:42.103Z,101985.31
2023-02-15T12:36:48.268Z,101996.13
2023-02-15T12:41:56.423Z,101986.97
2023-02-15T12:47:05.101Z,101987.19
2023-02-15T12:52:25.602Z,101986.34
2023-02-15T12:57:30.977Z,101981.25
2023-02-15T13:02:49.562Z,101973.19
2023-02-15T13:07:57.237Z,101975.22
2023-02-15T13:12:59.889Z,101936.81
2023-02-15T13:18:04.285Z,101944.56
2023-02-15T13:23:14.885Z,101953.34
2023-02-15T13:28:20.013Z,101922.00
2023-02-15T13:33:33.110Z,101960.38
2023-02-15T13:38:46.303Z,101951.28
2023-02-15T13:43:52.219Z,101938.13
2023-02-15T13:49:18.015Z,101966.25
2023-02-15T13:54:26.423Z,101955.88
2023-02-15T13:59:46.734Z,101958.84
2023-02-15T14:05:18.018Z,101967.97
2023-02-15T14:10:29.268Z,101967.44
2023-02-15T14:15:36.066Z,101954.75
2023-02-15T14:21:15.642Z,101914.50
2023-02-15T14:26:35.644Z,101972.06
2023-02-15T14:31:47.284Z,101974.59
2023-02-15T14:36:52.261Z,101940.44
2023-02-15T14:42:01.160Z,101937.28
2023-02-15T14:47:13.145Z,101946.34
2023-02-15T14:52:15.342Z,101958.03
2023-02-15T14:57:17.595Z,101954.84
2023-02-15T15:02:43.508Z,101960.41
2023-02-15T15:07:59.143Z,101951.06
2023-02-15T15:13:30.135Z,101953.00
2023-02-15T15:18:45.732Z,101958.28
2023-02-15T15:23:48.227Z,101959.47
2023-02-15T15:28:50.358Z,101966.81
2023-02-15T15:34:10.998Z,101970.66
2023-02-15T15:39:56.494Z,101981.47
2023-02-15T15:45:27.999Z,101977.31
2023-02-15T15:50:30.649Z,101970.53
2023-02-15T15:55:35.096Z,101935.84
2023-02-15T16:00:46.165Z,101982.38
2023-02-15T16:05:54.081Z,101914.75
2023-02-15T16:10:56.816Z,101962.25
2023-02-15T16:15:59.238Z,101977.63
2023-02-15T16:21:03.010Z,101984.66
2023-02-15T16:26:14.355Z,102006.31
2023-02-15T16:31:17.988Z,102004.22
2023-02-15T16:36:26.759Z,102011.06
2023-02-15T16:41:30.765Z,102015.53
2023-02-15T16:46:37.846Z,102006.88
2023-02-15T16:51:45.533Z,101912.88
2023-02-15T16:56:48.315Z,101944.25
2023-02-15T17:01:52.580Z,101947.69
2023-02-15T17:07:21.445Z,102018.00
2023-02-15T17:12:56.450Z,102049.88
2023-02-15T17:18:06.367Z,102046.78
2023-02-15T17:23:19.689Z,102055.63
2023-02-15T17:28:32.760Z,102040.53
2023-02-15T17:33:35.338Z,102051.13
2023-02-15T17:38:39.560Z,102024.72
2023-02-15T17:43:43.411Z,102042.16
2023-02-15T17:48:49.291Z,102049.63
2023-02-15T17:54:10.634Z,101965.03
2023-02-15T17:59:14.479Z,102000.25
2023-02-15T18:04:35.117Z,102051.56
2023-02-15T18:09:55.928Z,102069.75
2023-02-15T18:14:59.585Z,102081.97
2023-02-15T18:20:06.002Z,101946.41
2023-02-15T18:25:14.957Z,101995.91
2023-02-15T18:30:21.876Z,102024.09
2023-02-15T18:35:31.422Z,101906.28
2023-02-15T18:40:36.306Z,101987.84
2023-02-15T18:45:40.502Z,101985.06
2023-02-15T18:50:42.756Z,102055.56
2023-02-15T18:55:45.189Z,101997.75
2023-02-15T19:00:49.238Z,102064.53
2023-02-15T19:05:51.499Z,102076.66
2023-02-15T19:10:53.793Z,102067.78
2023-02-15T19:15:56.214Z,102087.34
2023-02-15T19:20:58.472Z,102095.41
2023-02-15T19:26:01.820Z,102044.06
2023-02-15T19:31:04.366Z,102096.78
2023-02-15T19:36:17.797Z,102035.31
2023-02-15T19:41:33.453Z,102067.38
2023-02-15T19:46:37.398Z,102089.44
2023-02-15T19:51:40.446Z,102114.00
2023-02-15T19:56:42.651Z,102096.72
2023-02-15T20:01:44.817Z,102036.41
2023-02-15T20:06:49.224Z,102096.66
2023-02-15T20:11:55.520Z,102115.00
2023-02-15T20:16:57.627Z,102104.47
2023-02-15T20:22:14.138Z,102125.38
2023-02-15T20:27:18.612Z,102020.78
2023-02-15T20:32:21.030Z,102064.50
2023-02-15T20:37:29.283Z,102014.72
2023-02-15T20:42:31.472Z,101992.66
2023-02-15T20:47:33.589Z,102110.47
2023-02-15T20:52:35.906Z,102109.44
2023-02-15T20:57:38.269Z,102103.88
2023-02-15T21:02:43.296Z,102121.38
2023-02-15T21:07:46.151Z,102101.19
2023-02-15T21:12:49.178Z,102129.94
2023-02-15T21:17:51.544Z,102108.38
2023-02-15T21:22:54.121Z,102145.69
2023-02-15T21:27:56.395Z,102109.78
2023-02-15T21:32:58.542Z,102098.53
2023-02-15T21:38:00.789Z,102117.56
2023-02-15T21:43:21.580Z,102132.47
2023-02-15T21:48:23.807Z,102115.00
2023-02-15T21:53:30.872Z,102130.53
2023-02-15T21:58:36.785Z,102134.06
2023-02-15T22:09:27.278Z,102139.88
2023-02-15T22:14:37.662Z,102154.06
2023-02-15T22:19:39.630Z,102160.13
2023-02-15T22:24:42.692Z,102167.84
2023-02-15T22:29:45.059Z,102134.66
2023-02-15T22:34:47.445Z,102169.44
2023-02-15T22:39:49.765Z,102176.69
2023-02-15T22:44:54.656Z,102180.31
2023-02-15T22:49:56.859Z,102176.25
2023-02-15T22:54:58.967Z,102125.88
2023-02-15T23:00:04.432Z,102130.06
2023-02-15T23:05:06.764Z,102119.53
2023-02-15T23:10:21.416Z,102146.53
2023-02-15T23:15:23.672Z,102160.97
2023-02-15T23:20:26.318Z,102132.53
2023-02-15T23:25:28.503Z,102144.25
2023-02-15T23:30:30.833Z,102158.56
2023-02-15T23:35:33.573Z,102156.91
2023-02-15T23:41:11.113Z,102157.88
2023-02-15T23:46:25.732Z,102139.28
2023-02-15T23:51:32.296Z,102140.69
2023-02-15T23:56:34.841Z,102124.09
